Kezdőlap
METAR-TAF:

METAR-TAF

Repülőterek :

RAF

Holbeach, Anglia

földrajzi szélesség: 52-52N, földrajzi hosszúság: 000-09E, magasság: 3 m

Jelenlegi meteorológiai megfigyelések

A jelentés 10 órával és 38 perccel ezelõtt készült, 16:50 UTC
Északnyugati szél 23 kt
Hőmérséklet 6°C
Páratartalom 61%
Légköri nyomás 1005 hPa
Látótávolság 10 km, vagy több
Kevés felhő 4000 lábon

METAR: EGYH 271650Z 31023KT 9999 FEW040 06/M01 Q1005 RMK BLU

Idő: 03:28 (03:28 UTC)


TAF: hiányzik

Meteorológiai megfigyelések és előrejelzések több, mint 4000 repülőtéren (METAR és TAF jelentéseket).

A térképen piros és sárga pontok jelzik az elérhető meteorológiai állomásokat.

Mozgassa az egeret a pont fölött, hogy megjelenjen az állomás neve.

Azután kattintson az időjárási megfigyelések és előrejelzések megtekintéséhez.

A térkép megváltoztatása: kattintson a fekete keresztel jelölt zöld gombra ráközelítéshez, a vonallal jelölt zöld gombra távolításhoz, vagy a zöld nyilakra a szomszédos térképek eléréséhez.


METAR-TAF: